createdAt,value
2023-04-04T00:00:42.500Z,1.80
2023-04-04T00:03:10.514Z,1.37
2023-04-04T00:05:38.408Z,1.90
2023-04-04T00:08:06.757Z,2.10
2023-04-04T00:10:35.932Z,1.87
2023-04-04T00:13:05.511Z,2.90
2023-04-04T00:15:34.676Z,2.03
2023-04-04T00:18:03.825Z,1.60
2023-04-04T00:20:31.792Z,2.00
2023-04-04T00:23:00.611Z,2.80
2023-04-04T00:25:28.465Z,1.57
2023-04-04T00:28:00.608Z,3.37
2023-04-04T00:30:29.306Z,1.73
2023-04-04T00:32:58.144Z,2.83
2023-04-04T00:35:26.219Z,2.00
2023-04-04T00:37:54.069Z,1.50
2023-04-04T00:40:22.586Z,1.97
2023-04-04T00:42:50.543Z,1.90
2023-04-04T00:45:19.688Z,2.63
2023-04-04T00:47:48.165Z,1.50
2023-04-04T00:50:16.878Z,1.53
2023-04-04T00:52:44.786Z,1.70
2023-04-04T00:55:12.676Z,1.57
2023-04-04T00:57:40.728Z,2.30
2023-04-04T01:00:10.247Z,2.93
2023-04-04T01:02:39.577Z,1.50
2023-04-04T01:05:08.401Z,1.70
2023-04-04T01:07:37.287Z,1.70
2023-04-04T01:10:06.213Z,1.40
2023-04-04T01:12:34.098Z,1.53
2023-04-04T01:15:01.939Z,2.20
2023-04-04T01:17:30.267Z,1.90
2023-04-04T01:20:04.393Z,1.40
2023-04-04T01:22:33.140Z,1.80
2023-04-04T01:25:02.081Z,1.67
2023-04-04T01:27:31.473Z,1.50
2023-04-04T01:29:59.364Z,1.43
2023-04-04T01:32:32.001Z,1.50
2023-04-04T01:35:06.911Z,2.13
2023-04-04T01:37:37.575Z,1.80
2023-04-04T01:40:10.096Z,1.80
2023-04-04T01:42:39.297Z,1.43
2023-04-04T01:45:09.051Z,1.63
2023-04-04T01:47:40.462Z,1.63
2023-04-04T01:50:09.641Z,1.70
2023-04-04T01:52:37.579Z,2.37
2023-04-04T01:55:06.160Z,2.27
2023-04-04T01:57:33.999Z,1.63
2023-04-04T02:00:03.367Z,2.17
2023-04-04T02:02:31.330Z,2.80
2023-04-04T02:04:59.377Z,1.80
2023-04-04T02:07:27.126Z,1.53
2023-04-04T02:09:54.954Z,1.93
2023-04-04T02:12:22.665Z,2.73
2023-04-04T02:14:50.789Z,2.30
2023-04-04T02:17:19.935Z,2.33
2023-04-04T02:19:47.797Z,2.00
2023-04-04T02:22:15.565Z,1.53
2023-04-04T02:24:43.322Z,1.83
2023-04-04T02:27:11.205Z,1.57
2023-04-04T02:29:39.000Z,1.70
2023-04-04T02:32:07.218Z,1.77
2023-04-04T02:34:36.378Z,2.03
2023-04-04T02:37:04.238Z,1.50
2023-04-04T02:39:31.950Z,1.53
2023-04-04T02:41:59.744Z,2.03
2023-04-04T02:44:27.528Z,1.60
2023-04-04T02:46:55.802Z,1.40
2023-04-04T02:49:23.679Z,1.40
2023-04-04T02:51:52.914Z,2.03
2023-04-04T02:54:20.734Z,2.37
2023-04-04T02:56:48.505Z,1.77
2023-04-04T02:59:17.100Z,1.40
2023-04-04T03:01:44.860Z,1.70
2023-04-04T03:04:13.695Z,1.20
2023-04-04T03:06:42.257Z,1.20
2023-04-04T03:09:11.852Z,1.33
2023-04-04T03:11:39.717Z,1.70
2023-04-04T03:14:07.615Z,1.60
2023-04-04T03:16:35.421Z,1.40
2023-04-04T03:19:03.282Z,1.40
2023-04-04T03:21:31.306Z,1.40
2023-04-04T03:23:59.046Z,1.80
2023-04-04T03:26:29.312Z,2.03
2023-04-04T03:28:57.309Z,2.03
2023-04-04T03:31:25.213Z,1.70
2023-04-04T03:33:53.189Z,1.53
2023-04-04T03:36:21.303Z,1.93
2023-04-04T03:38:49.117Z,2.47
2023-04-04T03:41:16.901Z,1.57
2023-04-04T03:43:46.394Z,1.67
2023-04-04T03:46:14.134Z,1.50
2023-04-04T03:48:41.912Z,1.97
2023-04-04T03:51:09.704Z,1.60
2023-04-04T03:53:37.968Z,1.90
2023-04-04T03:56:06.467Z,2.00
2023-04-04T03:58:36.696Z,2.37
2023-04-04T04:01:06.007Z,2.27
2023-04-04T04:03:34.062Z,1.73
2023-04-04T04:06:02.129Z,2.03
2023-04-04T04:08:29.862Z,1.93
2023-04-04T04:10:57.646Z,2.17
2023-04-04T04:13:25.381Z,2.17
2023-04-04T04:15:55.750Z,1.77
2023-04-04T04:18:24.907Z,2.40
2023-04-04T04:20:52.628Z,2.13
2023-04-04T04:23:20.435Z,2.07
2023-04-04T04:25:49.073Z,1.57
2023-04-04T04:28:17.024Z,1.73
2023-04-04T04:30:45.229Z,2.00
2023-04-04T04:33:13.048Z,1.60
2023-04-04T04:35:42.354Z,1.40
2023-04-04T04:38:10.745Z,1.57
2023-04-04T04:40:38.970Z,1.53
2023-04-04T04:43:06.985Z,1.40
2023-04-04T04:45:34.791Z,1.93
2023-04-04T04:48:02.684Z,1.70
2023-04-04T04:50:30.629Z,1.50
2023-04-04T04:52:59.814Z,1.50
2023-04-04T04:55:27.670Z,1.23
2023-04-04T04:57:55.474Z,1.10
2023-04-04T05:00:23.390Z,1.57
2023-04-04T05:02:51.303Z,2.77
2023-04-04T05:05:19.256Z,2.20
2023-04-04T05:07:47.360Z,1.63
2023-04-04T05:10:16.610Z,2.00
2023-04-04T05:12:44.770Z,1.80
2023-04-04T05:15:13.247Z,2.30
2023-04-04T05:17:41.997Z,2.53
2023-04-04T05:20:11.012Z,2.17
2023-04-04T05:22:44.088Z,1.80
2023-04-04T05:25:12.287Z,1.30
2023-04-04T05:27:41.774Z,1.50
2023-04-04T05:30:10.054Z,2.13
2023-04-04T05:32:38.090Z,1.87
2023-04-04T05:35:06.964Z,1.30
2023-04-04T05:37:34.935Z,1.20
2023-04-04T05:40:02.789Z,1.47
2023-04-04T05:42:30.553Z,1.63
2023-04-04T05:44:59.637Z,1.87
2023-04-04T05:47:27.623Z,2.73
2023-04-04T05:49:55.424Z,1.30
2023-04-04T05:52:23.364Z,1.80
2023-04-04T05:54:51.372Z,2.47
2023-04-04T05:57:19.421Z,2.30
2023-04-04T05:59:47.476Z,1.50
2023-04-04T06:02:17.553Z,1.30
2023-04-04T06:04:47.162Z,1.77
2023-04-04T06:07:15.069Z,2.03
2023-04-04T06:09:43.201Z,1.80
2023-04-04T06:12:11.068Z,1.77
2023-04-04T06:14:40.050Z,1.53
2023-04-04T06:17:07.866Z,1.60
2023-04-04T06:19:37.058Z,1.60
2023-04-04T06:22:04.823Z,1.93
2023-04-04T06:24:37.461Z,1.27
2023-04-04T06:27:06.593Z,2.37
2023-04-04T06:29:34.427Z,1.73
2023-04-04T06:32:02.203Z,1.77
2023-04-04T06:34:30.070Z,1.53
2023-04-04T06:36:59.207Z,1.70
2023-04-04T06:39:27.209Z,1.80
2023-04-04T06:41:55.118Z,2.20
2023-04-04T06:44:22.900Z,1.33
2023-04-04T06:46:50.932Z,2.70
2023-04-04T06:49:19.915Z,2.27
2023-04-04T06:51:50.693Z,2.03
2023-04-04T06:54:19.951Z,2.07
2023-04-04T06:56:47.724Z,3.03
2023-04-04T06:59:15.515Z,2.50
2023-04-04T07:01:43.357Z,1.70
2023-04-04T07:04:11.170Z,1.90
2023-04-04T07:06:39.054Z,1.50
2023-04-04T07:09:12.851Z,2.20
2023-04-04T07:11:47.848Z,2.13
2023-04-04T07:14:16.064Z,2.13
2023-04-04T07:16:43.842Z,1.67
2023-04-04T07:19:11.683Z,1.77
2023-04-04T07:21:40.182Z,3.20
2023-04-04T07:24:08.076Z,1.97
2023-04-04T07:26:35.862Z,2.07
2023-04-04T07:29:05.242Z,2.00
2023-04-04T07:31:33.331Z,2.13
2023-04-04T07:34:01.567Z,1.87
2023-04-04T07:36:29.707Z,2.00
2023-04-04T07:38:57.952Z,1.53
2023-04-04T07:41:25.835Z,1.63
2023-04-04T07:43:53.540Z,2.07
2023-04-04T07:46:23.230Z,1.40
2023-04-04T07:48:51.055Z,2.10
2023-04-04T07:51:20.746Z,2.30
2023-04-04T07:53:48.594Z,1.93
2023-04-04T07:56:16.386Z,2.43
2023-04-04T07:58:44.166Z,3.10
2023-04-04T08:01:12.143Z,2.87
2023-04-04T08:03:41.510Z,1.97
2023-04-04T08:06:09.595Z,2.57
2023-04-04T08:08:37.446Z,1.77
2023-04-04T08:11:05.292Z,1.90
2023-04-04T08:13:33.126Z,3.57
2023-04-04T08:16:00.843Z,1.93
2023-04-04T08:18:28.702Z,2.43
2023-04-04T08:20:57.860Z,2.63
2023-04-04T08:23:25.678Z,1.97
2023-04-04T08:25:53.994Z,1.60
2023-04-04T08:28:21.910Z,2.50
2023-04-04T08:30:49.719Z,1.50
2023-04-04T08:33:17.791Z,2.33
2023-04-04T08:35:45.741Z,1.63
2023-04-04T08:38:14.874Z,1.27
2023-04-04T08:40:43.178Z,2.83
2023-04-04T08:43:11.689Z,1.57
2023-04-04T08:45:41.863Z,2.43
2023-04-04T08:48:11.597Z,2.10
2023-04-04T08:50:40.620Z,2.27
2023-04-04T08:53:10.429Z,1.30
2023-04-04T08:55:40.920Z,1.77
2023-04-04T08:58:09.397Z,1.70
2023-04-04T09:00:40.464Z,1.27
2023-04-04T09:03:16.362Z,1.53
2023-04-04T09:05:45.187Z,2.07
2023-04-04T09:08:14.302Z,1.97
2023-04-04T09:10:44.454Z,1.33
2023-04-04T09:13:16.321Z,2.20
2023-04-04T09:15:47.858Z,2.00
2023-04-04T09:18:15.637Z,2.37
2023-04-04T09:20:44.461Z,2.07
2023-04-04T09:23:13.770Z,1.90
2023-04-04T09:26:02.359Z,1.53
2023-04-04T09:28:31.681Z,1.60
2023-04-04T09:31:01.460Z,2.30
2023-04-04T09:33:29.518Z,1.30
2023-04-04T09:36:00.178Z,2.07
2023-04-04T09:38:30.328Z,1.60
2023-04-04T09:40:59.779Z,1.87
2023-04-04T09:43:31.005Z,2.20
2023-04-04T09:46:00.246Z,2.57
2023-04-04T09:48:28.872Z,1.80
2023-04-04T09:50:59.557Z,1.97
2023-04-04T09:53:27.494Z,3.37
2023-04-04T09:55:56.579Z,2.10
2023-04-04T09:58:28.424Z,4.60
2023-04-04T10:00:57.437Z,3.17
2023-04-04T10:03:25.707Z,3.07
2023-04-04T10:05:58.948Z,3.00
2023-04-04T10:08:28.350Z,2.77
2023-04-04T10:11:09.683Z,4.00
2023-04-04T10:13:43.841Z,3.00
2023-04-04T10:16:12.250Z,2.80
2023-04-04T10:18:40.464Z,2.87
2023-04-04T10:23:41.895Z,3.00
2023-04-04T10:26:10.029Z,2.77
2023-04-04T10:28:37.946Z,3.40
2023-04-04T10:31:10.914Z,3.40
2023-04-04T10:33:44.470Z,2.40
2023-04-04T10:36:13.885Z,2.73
2023-04-04T10:38:44.904Z,3.07
2023-04-04T10:41:13.638Z,2.70
2023-04-04T10:43:42.858Z,2.57
2023-04-04T10:46:13.550Z,2.43
2023-04-04T10:48:42.645Z,2.13
2023-04-04T10:51:11.604Z,2.77
2023-04-04T10:53:39.890Z,3.37
2023-04-04T10:56:08.158Z,3.80
2023-04-04T10:58:40.875Z,3.07
2023-04-04T11:01:09.444Z,4.97
2023-04-04T11:04:10.793Z,4.87
2023-04-04T11:07:11.325Z,3.00
2023-04-04T11:09:54.623Z,2.37
2023-04-04T11:12:24.103Z,1.93
2023-04-04T11:15:14.308Z,2.33
2023-04-04T11:17:58.701Z,3.53
2023-04-04T11:20:31.793Z,2.00
2023-04-04T11:23:10.831Z,1.50
2023-04-04T11:25:42.110Z,2.33
2023-04-04T11:28:29.257Z,3.00
2023-04-04T11:31:24.845Z,2.77
2023-04-04T11:33:57.495Z,2.10
2023-04-04T11:36:25.879Z,3.00
2023-04-04T11:38:53.766Z,3.17
2023-04-04T11:41:23.980Z,4.87
2023-04-04T11:43:52.510Z,5.47
2023-04-04T11:46:21.568Z,5.13
2023-04-04T11:48:49.609Z,4.13
2023-04-04T11:51:17.602Z,3.23
2023-04-04T11:53:45.810Z,3.87
2023-04-04T11:56:16.518Z,2.33
2023-04-04T11:58:53.838Z,4.97
2023-04-04T12:01:26.639Z,5.37
2023-04-04T12:03:54.390Z,3.10
2023-04-04T12:06:22.272Z,5.77
2023-04-04T12:08:50.231Z,6.17
2023-04-04T12:11:18.692Z,5.57
2023-04-04T12:13:48.672Z,3.63
2023-04-04T12:16:16.386Z,3.17
2023-04-04T12:18:46.079Z,3.53
2023-04-04T12:21:13.867Z,2.20
2023-04-04T12:23:41.780Z,2.00
2023-04-04T12:26:11.355Z,1.60
2023-04-04T12:28:40.523Z,3.53
2023-04-04T12:31:15.514Z,1.90
2023-04-04T12:33:43.435Z,1.50
2023-04-04T12:36:12.500Z,2.73
2023-04-04T12:38:57.802Z,2.30
2023-04-04T12:41:25.825Z,1.97
2023-04-04T12:44:01.927Z,2.00
2023-04-04T12:46:36.494Z,3.73
2023-04-04T12:49:05.414Z,1.40
2023-04-04T12:51:34.332Z,2.20
2023-04-04T12:54:02.715Z,1.80
2023-04-04T12:56:30.818Z,1.60
2023-04-04T12:59:03.301Z,2.23
2023-04-04T13:01:33.362Z,1.90
2023-04-04T13:04:04.159Z,2.10
2023-04-04T13:06:33.006Z,2.53
2023-04-04T13:09:01.434Z,1.80
2023-04-04T13:11:58.807Z,2.00
2023-04-04T13:14:26.653Z,1.73
2023-04-04T13:17:08.050Z,2.20
2023-04-04T13:19:36.056Z,2.93
2023-04-04T13:22:03.962Z,1.80
2023-04-04T13:24:31.814Z,1.97
2023-04-04T13:26:59.577Z,2.40
2023-04-04T13:29:27.856Z,2.10
2023-04-04T13:31:55.591Z,1.70
2023-04-04T13:34:26.832Z,2.33
2023-04-04T13:36:56.336Z,2.47
2023-04-04T13:39:24.146Z,2.07
2023-04-04T13:41:51.897Z,2.63
2023-04-04T13:44:19.746Z,3.40
2023-04-04T13:46:47.526Z,2.03
2023-04-04T13:49:15.338Z,2.03
2023-04-04T13:51:44.427Z,3.33
2023-04-04T13:54:12.665Z,2.23
2023-04-04T13:56:41.785Z,2.00
2023-04-04T13:59:09.550Z,3.03
2023-04-04T14:01:37.478Z,2.10
2023-04-04T14:04:13.191Z,1.80
2023-04-04T14:06:47.226Z,2.80
2023-04-04T14:09:15.067Z,3.87
2023-04-04T14:11:42.908Z,3.23
2023-04-04T14:14:10.618Z,2.83
2023-04-04T14:16:38.368Z,2.03
2023-04-04T14:19:06.094Z,2.80
2023-04-04T14:21:33.849Z,2.87
2023-04-04T14:24:02.948Z,2.47
2023-04-04T14:26:31.270Z,2.73
2023-04-04T14:28:59.711Z,2.23
2023-04-04T14:31:27.731Z,2.47
2023-04-04T14:33:55.733Z,1.77
2023-04-04T14:36:24.553Z,1.70
2023-04-04T14:38:52.360Z,1.50
2023-04-04T14:41:22.026Z,1.87
2023-04-04T14:43:49.845Z,1.70
2023-04-04T14:46:19.535Z,2.50
2023-04-04T14:48:48.151Z,1.67
2023-04-04T14:51:16.764Z,1.57
2023-04-04T14:53:44.520Z,1.90
2023-04-04T14:56:12.906Z,1.50
2023-04-04T14:58:42.060Z,1.90
2023-04-04T15:01:09.909Z,1.83
2023-04-04T15:03:38.149Z,1.97
2023-04-04T15:06:06.090Z,2.17
2023-04-04T15:08:33.881Z,2.67
2023-04-04T15:11:02.092Z,2.50
2023-04-04T15:13:29.819Z,1.73
2023-04-04T15:16:00.134Z,1.93
2023-04-04T15:18:27.912Z,2.07
2023-04-04T15:20:58.599Z,1.93
2023-04-04T15:23:26.439Z,1.90
2023-04-04T15:25:54.237Z,2.20
2023-04-04T15:28:21.947Z,1.87
2023-04-04T15:30:49.730Z,1.87
2023-04-04T15:33:18.985Z,1.90
2023-04-04T15:35:47.166Z,1.60
2023-04-04T15:38:14.944Z,1.60
2023-04-04T15:40:42.927Z,2.30
2023-04-04T15:43:10.932Z,1.97
2023-04-04T15:45:39.471Z,1.67
2023-04-04T15:48:08.027Z,2.03
2023-04-04T15:50:37.319Z,1.67
2023-04-04T15:53:05.026Z,1.80
2023-04-04T15:55:32.933Z,1.90
2023-04-04T15:58:01.121Z,2.67
2023-04-04T16:00:29.522Z,1.80
2023-04-04T16:02:58.631Z,2.00
2023-04-04T16:05:27.341Z,2.13
2023-04-04T16:07:56.447Z,1.60
2023-04-04T16:10:24.277Z,1.97
2023-04-04T16:12:52.042Z,2.30
2023-04-04T16:15:20.832Z,2.13
2023-04-04T16:17:48.694Z,3.13
2023-04-04T16:20:16.662Z,1.63
2023-04-04T16:22:44.414Z,1.80
2023-04-04T16:25:13.741Z,1.60
2023-04-04T16:27:41.505Z,1.70
2023-04-04T16:30:10.500Z,3.27
2023-04-04T16:32:41.728Z,2.50
2023-04-04T16:35:10.200Z,2.23
2023-04-04T16:37:37.988Z,1.70
2023-04-04T16:40:06.768Z,2.47
2023-04-04T16:42:36.188Z,2.67
2023-04-04T16:45:04.204Z,2.27
2023-04-04T16:47:31.972Z,1.60
2023-04-04T16:49:59.937Z,3.87
2023-04-04T16:52:27.701Z,1.80
2023-04-04T16:54:55.611Z,2.73
2023-04-04T16:57:23.352Z,2.20
2023-04-04T16:59:52.452Z,2.33
2023-04-04T17:02:20.233Z,2.23
2023-04-04T17:04:48.155Z,2.90
2023-04-04T17:07:15.930Z,2.80
2023-04-04T17:09:44.478Z,1.97
2023-04-04T17:12:13.012Z,2.67
2023-04-04T17:14:40.821Z,2.27
2023-04-04T17:17:10.447Z,5.17
2023-04-04T17:19:38.815Z,2.10
2023-04-04T17:22:06.600Z,2.43
2023-04-04T17:24:34.368Z,2.20
2023-04-04T17:27:02.517Z,2.43
2023-04-04T17:29:30.716Z,2.10
2023-04-04T17:31:59.657Z,2.20
2023-04-04T17:34:31.348Z,2.00
2023-04-04T17:36:59.225Z,1.73
2023-04-04T17:39:27.131Z,1.67
2023-04-04T17:41:54.976Z,2.20
2023-04-04T17:44:22.931Z,3.03
2023-04-04T17:46:50.665Z,3.07
2023-04-04T17:49:20.645Z,2.77
2023-04-04T17:51:50.365Z,4.50
2023-04-04T17:54:18.713Z,2.70
2023-04-04T17:56:47.096Z,4.70
2023-04-04T17:59:16.547Z,2.77
2023-04-04T18:01:44.925Z,6.63
2023-04-04T18:04:12.938Z,7.03
2023-04-04T18:06:41.786Z,4.30
2023-04-04T18:09:11.312Z,3.57
2023-04-04T18:11:40.136Z,4.10
2023-04-04T18:14:08.490Z,4.97
2023-04-04T18:16:40.178Z,5.00
2023-04-04T18:19:08.925Z,6.63
2023-04-04T18:21:36.691Z,8.50
2023-04-04T18:24:07.307Z,8.10
2023-04-04T18:26:36.470Z,10.57
2023-04-04T18:29:04.244Z,13.53
2023-04-04T18:31:32.125Z,12.47
2023-04-04T18:34:00.863Z,11.07
2023-04-04T18:36:28.804Z,10.17
2023-04-04T18:38:56.674Z,7.60
2023-04-04T18:41:24.463Z,6.60
2023-04-04T18:43:53.579Z,5.70
2023-04-04T18:46:21.360Z,6.57
2023-04-04T18:48:49.088Z,6.00
2023-04-04T18:51:17.476Z,4.97
2023-04-04T18:53:45.318Z,5.70
2023-04-04T18:56:13.151Z,6.93
2023-04-04T18:58:41.776Z,6.13
2023-04-04T19:01:12.567Z,7.13
2023-04-04T19:03:43.946Z,8.30
2023-04-04T19:06:13.299Z,6.07
2023-04-04T19:08:42.029Z,3.97
2023-04-04T19:11:10.597Z,4.70
2023-04-04T19:13:38.974Z,3.23
2023-04-04T19:16:06.854Z,3.50
2023-04-04T19:18:36.114Z,3.03
2023-04-04T19:21:05.561Z,2.77
2023-04-04T19:23:33.400Z,2.63
2023-04-04T19:26:02.268Z,2.63
2023-04-04T19:28:30.496Z,2.03
2023-04-04T19:30:58.363Z,3.20
2023-04-04T19:33:27.479Z,4.03
2023-04-04T19:35:59.104Z,2.03
2023-04-04T19:38:28.247Z,3.13
2023-04-04T19:40:58.483Z,2.30
2023-04-04T19:43:28.148Z,1.70
2023-04-04T19:45:56.985Z,2.87
2023-04-04T19:48:44.705Z,2.27
2023-04-04T19:51:41.247Z,2.00
2023-04-04T19:54:14.873Z,2.47
2023-04-04T19:56:43.250Z,2.13
2023-04-04T19:59:49.817Z,1.87
2023-04-04T20:02:59.933Z,2.63
2023-04-04T20:06:03.754Z,3.13
2023-04-04T20:08:41.197Z,2.30
2023-04-04T20:11:09.145Z,2.70
2023-04-04T20:13:37.355Z,2.97
2023-04-04T20:16:07.783Z,3.53
2023-04-04T20:18:36.833Z,1.87
2023-04-04T20:21:08.557Z,2.73
2023-04-04T20:23:43.786Z,2.63
2023-04-04T20:26:14.457Z,2.43
2023-04-04T20:28:45.096Z,3.40
2023-04-04T20:31:17.196Z,2.40
2023-04-04T20:33:45.265Z,3.30
2023-04-04T20:36:14.620Z,3.77
2023-04-04T20:38:43.851Z,2.50
2023-04-04T20:41:16.459Z,2.57
2023-04-04T20:43:51.544Z,3.13
2023-04-04T20:46:20.908Z,2.57
2023-04-04T20:48:50.208Z,2.20
2023-04-04T20:51:24.477Z,5.53
2023-04-04T20:53:54.735Z,2.93
2023-04-04T20:56:56.610Z,3.73
2023-04-04T20:59:35.733Z,2.60
2023-04-04T21:02:12.554Z,2.20
2023-04-04T21:04:41.666Z,2.40
2023-04-04T21:07:09.543Z,3.67
2023-04-04T21:09:38.652Z,3.97
2023-04-04T21:12:07.708Z,2.93
2023-04-04T21:14:39.002Z,3.07
2023-04-04T21:17:07.788Z,3.43
2023-04-04T21:19:35.645Z,2.43
2023-04-04T21:22:04.844Z,3.77
2023-04-04T21:24:35.450Z,2.60
2023-04-04T21:27:07.431Z,1.77
2023-04-04T21:29:35.197Z,2.03
2023-04-04T21:32:03.777Z,2.67
2023-04-04T21:34:32.373Z,2.17
2023-04-04T21:37:02.889Z,2.80
2023-04-04T21:39:31.193Z,2.00
2023-04-04T21:42:00.044Z,1.87
2023-04-04T21:44:29.661Z,2.63
2023-04-04T21:46:57.340Z,1.87
2023-04-04T21:49:25.500Z,2.47
2023-04-04T21:51:53.531Z,2.60
2023-04-04T21:54:21.285Z,1.80
2023-04-04T21:56:48.989Z,2.40
2023-04-04T21:59:16.782Z,2.03
2023-04-04T22:01:45.982Z,2.90
2023-04-04T22:04:13.800Z,2.37
2023-04-04T22:06:42.751Z,2.13
2023-04-04T22:09:10.717Z,2.43
2023-04-04T22:11:44.314Z,2.13
2023-04-04T22:14:17.459Z,2.20
2023-04-04T22:16:47.247Z,1.73
2023-04-04T22:19:15.172Z,2.27
2023-04-04T22:21:46.986Z,2.87
2023-04-04T22:24:15.697Z,3.77
2023-04-04T22:26:45.642Z,2.63
2023-04-04T22:29:13.541Z,2.30
2023-04-04T22:31:41.398Z,3.03
2023-04-04T22:34:11.904Z,2.50
2023-04-04T22:36:42.117Z,2.23
2023-04-04T22:39:09.987Z,2.30
2023-04-04T22:41:37.728Z,2.83
2023-04-04T22:44:05.614Z,2.27
2023-04-04T22:46:33.487Z,2.07
2023-04-04T22:49:06.751Z,2.30
2023-04-04T22:51:42.919Z,2.33
2023-04-04T22:54:11.233Z,2.40
2023-04-04T22:56:39.061Z,2.10
2023-04-04T22:59:06.794Z,2.03
2023-04-04T23:01:34.586Z,2.40
2023-04-04T23:04:02.477Z,2.73
2023-04-04T23:06:31.413Z,3.00
2023-04-04T23:09:01.351Z,2.47
2023-04-04T23:11:29.909Z,3.00
2023-04-04T23:13:57.899Z,3.80
2023-04-04T23:16:26.421Z,2.33
2023-04-04T23:18:54.428Z,2.67
2023-04-04T23:21:22.485Z,1.77
2023-04-04T23:23:50.912Z,1.90
2023-04-04T23:26:20.070Z,2.10
2023-04-04T23:28:47.863Z,2.13
2023-04-04T23:31:16.223Z,2.00
2023-04-04T23:33:44.147Z,3.40
2023-04-04T23:36:12.028Z,2.40
2023-04-04T23:38:39.888Z,2.33
2023-04-04T23:43:47.316Z,2.30
2023-04-04T23:46:15.505Z,2.17
2023-04-04T23:48:43.668Z,2.20
2023-04-04T23:51:12.180Z,2.10
2023-04-04T23:53:40.393Z,2.53
2023-04-04T23:56:08.680Z,2.80
2023-04-04T23:58:38.797Z,3.20
